»·PEaware :: N891SM KSAN-KSBA

N891SM :: KSAN-KSBA

FLIGHT INFORMATION

Flight Status: Arrived
Operator: Privately registered:
United States
More flights under this callsign
Pilot: Chris H. (14545)
Aircraft: CESSNA 172 SKYHAWK
(C172)
More flights by this aircraft type
Origin: KSAN San Diego Intl-Lindbergh
United States
Destination: KSBA Santa Barbara Mun
United States
More flights between these airports :: More routes between these airports
Route: OCN V23 LAX V299 VTU VTU282 KWANG
File this flight plan on PilotEdge
Remarks:
Altitude:
(Current/Filed)
8,000ft
Speed:
(Current/Filed)
110kts
Departed: 18-Nov-17 03:26 PM
Arrived: 18-Nov-17 05:11 PM
Distance/Time
Traveled:
167nm/1:44
Distance/Time
To Go:
Arrived

Flight Plot

Page will automatically refresh every two minutes.


Map Options




Map Legend


Flown Route
Filed Route
Departure Airport
Arrival Airport
Navaid (VOR, NDB)
Fix

Horizontal Profiles

Position Reports

Time Latitude Longitude Heading Altitude Ground
Speed
18-Nov-17 15:11 32.732420 -117.176641 194 30ft 0kts
18-Nov-17 15:12 32.732420 -117.176641 194 30ft 0kts
18-Nov-17 15:13 32.732420 -117.176641 194 30ft 0kts
18-Nov-17 15:14 32.732420 -117.176641 194 30ft 0kts
18-Nov-17 15:15 32.732420 -117.176641 194 30ft 0kts
18-Nov-17 15:16 32.732420 -117.176641 194 30ft 0kts
18-Nov-17 15:17 32.732420 -117.176641 194 30ft 0kts
18-Nov-17 15:18 32.732420 -117.176641 194 30ft 0kts
18-Nov-17 15:19 32.732420 -117.176641 194 30ft 0kts
18-Nov-17 15:20 32.732420 -117.176641 194 30ft 0kts
18-Nov-17 15:21 32.732420 -117.176641 194 30ft 0kts
18-Nov-17 15:22 32.732420 -117.176641 194 30ft 0kts
18-Nov-17 15:23 32.732420 -117.176641 194 30ft 0kts
18-Nov-17 15:24 32.732420 -117.176641 194 30ft 0kts
18-Nov-17 15:25 32.732420 -117.176641 194 30ft 0kts
18-Nov-17 15:26 32.732420 -117.176641 194 30ft 0kts
18-Nov-17 15:27 32.732420 -117.176641 194 30ft 0kts
18-Nov-17 15:28 32.732420 -117.176641 194 30ft 0kts
18-Nov-17 15:29 32.731238 -117.176073 103 26ft 11kts
18-Nov-17 15:30 32.730814 -117.175373 151 26ft 0kts
18-Nov-17 15:31 32.730744 -117.177875 288 20ft 47kts
18-Nov-17 15:32 32.737644 -117.193002 320 553ft 58kts
18-Nov-17 15:33 32.752092 -117.205914 320 1017ft 76kts
18-Nov-17 15:34 32.769141 -117.221295 320 1500ft 77kts
18-Nov-17 15:35 32.786235 -117.236848 320 1957ft 78kts
18-Nov-17 15:36 32.805603 -117.254650 321 1993ft 95kts
18-Nov-17 15:37 32.827308 -117.274646 321 1994ft 105kts
18-Nov-17 15:38 32.850932 -117.296318 321 1993ft 108kts
18-Nov-17 15:39 32.872919 -117.316213 320 2492ft 82kts
18-Nov-17 15:40 32.892623 -117.329940 343 3078ft 86kts
18-Nov-17 15:41 32.916316 -117.336131 342 3630ft 89kts
18-Nov-17 15:42 32.940711 -117.342282 344 4170ft 90kts
18-Nov-17 15:43 32.965603 -117.348549 343 4711ft 94kts
18-Nov-17 15:44 32.990848 -117.354918 344 5422ft 93kts
18-Nov-17 15:45 33.016612 -117.361402 345 5991ft 102kts
18-Nov-17 15:46 33.048127 -117.369270 345 5999ft 122kts
18-Nov-17 15:47 33.081731 -117.377712 345 5999ft 124kts
18-Nov-17 15:48 33.115511 -117.386224 346 6000ft 124kts
18-Nov-17 15:49 33.149328 -117.394750 345 5999ft 125kts
18-Nov-17 15:50 33.183427 -117.403367 345 5998ft 126kts
18-Nov-17 15:51 33.217641 -117.412065 345 5997ft 126kts
18-Nov-17 15:52 33.248585 -117.428247 315 5996ft 123kts
18-Nov-17 15:53 33.273536 -117.456526 313 5997ft 123kts
18-Nov-17 15:54 33.298117 -117.484966 313 5999ft 123kts
18-Nov-17 15:55 33.322533 -117.513383 313 6001ft 122kts
18-Nov-17 15:56 33.346867 -117.541757 313 6003ft 121kts
18-Nov-17 15:57 33.370934 -117.569853 313 6005ft 120kts
18-Nov-17 15:58 33.394868 -117.597818 313 6007ft 120kts
18-Nov-17 15:59 33.418644 -117.625621 313 6025ft 120kts
18-Nov-17 16:00 33.442459 -117.653490 313 6025ft 121kts
18-Nov-17 16:01 33.466583 -117.681740 313 6024ft 122kts
18-Nov-17 16:02 33.490109 -117.709326 313 6022ft 123kts
18-Nov-17 16:03 33.514625 -117.738114 313 6020ft 124kts
18-Nov-17 16:04 33.539338 -117.767160 313 6019ft 124kts
18-Nov-17 16:05 33.564082 -117.796249 313 6018ft 125kts
18-Nov-17 16:06 33.588902 -117.825445 313 6018ft 125kts
18-Nov-17 16:07 33.610247 -117.857990 302 6017ft 124kts
18-Nov-17 16:08 33.629830 -117.892467 302 6016ft 125kts
18-Nov-17 16:09 33.649375 -117.926990 302 6015ft 125kts
18-Nov-17 16:10 33.668962 -117.961638 302 6013ft 125kts
18-Nov-17 16:11 33.688545 -117.996318 302 6012ft 126kts
18-Nov-17 16:12 33.708258 -118.031263 302 6011ft 126kts
18-Nov-17 16:13 33.727924 -118.066157 302 6009ft 126kts
18-Nov-17 16:14 33.747692 -118.101267 301 6009ft 126kts
18-Nov-17 16:15 33.767459 -118.136416 301 5978ft 126kts
18-Nov-17 16:16 33.786893 -118.171003 301 5982ft 124kts
18-Nov-17 16:17 33.806167 -118.205341 302 5986ft 123kts
18-Nov-17 16:18 33.825287 -118.239443 302 5976ft 123kts
18-Nov-17 16:19 33.844358 -118.273477 302 5979ft 122kts
18-Nov-17 16:20 33.861425 -118.303962 302 5984ft 121kts
18-Nov-17 16:21 33.880233 -118.337588 302 5987ft 121kts
18-Nov-17 16:22 33.899183 -118.371496 302 5988ft 122kts
18-Nov-17 16:23 33.918192 -118.405540 302 5989ft 123kts
18-Nov-17 16:24 33.935724 -118.440921 290 5990ft 123kts
18-Nov-17 16:25 33.948058 -118.479245 290 5989ft 123kts
18-Nov-17 16:26 33.960347 -118.517681 289 5989ft 123kts
18-Nov-17 16:27 33.972653 -118.556259 289 5990ft 123kts
18-Nov-17 16:28 33.984944 -118.594857 289 5991ft 123kts
18-Nov-17 16:29 33.997187 -118.633353 289 5993ft 123kts
18-Nov-17 16:30 34.009382 -118.671746 289 5997ft 122kts
18-Nov-17 16:31 34.021551 -118.710104 289 6001ft 122kts
18-Nov-17 16:32 34.033646 -118.748279 289 6005ft 122kts
18-Nov-17 16:33 34.044597 -118.786099 286 6010ft 121kts
18-Nov-17 16:34 34.054974 -118.824854 287 6014ft 121kts
18-Nov-17 16:35 34.065328 -118.863552 287 5997ft 121kts
18-Nov-17 16:36 34.075640 -118.902247 286 5999ft 121kts
18-Nov-17 16:37 34.086022 -118.940777 286 5999ft 121kts
18-Nov-17 16:38 34.096317 -118.979353 286 5999ft 121kts
18-Nov-17 16:39 34.106645 -119.018159 286 5998ft 121kts
18-Nov-17 16:40 34.117935 -119.056585 294 5997ft 122kts
18-Nov-17 16:41 34.132579 -119.093387 293 5995ft 121kts
18-Nov-17 16:42 34.147309 -119.130243 293 5993ft 121kts
18-Nov-17 16:43 34.161941 -119.166608 293 5992ft 121kts
18-Nov-17 16:44 34.176706 -119.203080 293 5991ft 121kts
18-Nov-17 16:45 34.191571 -119.239599 293 5990ft 120kts
18-Nov-17 16:46 34.206371 -119.275583 295 5990ft 120kts
18-Nov-17 16:47 34.221917 -119.311437 294 5990ft 120kts
18-Nov-17 16:48 34.237287 -119.347110 294 5989ft 120kts
18-Nov-17 16:49 34.252726 -119.382993 294 5989ft 120kts
18-Nov-17 16:50 34.264158 -119.420443 282 5989ft 119kts
18-Nov-17 16:51 34.272301 -119.459421 282 5989ft 119kts
18-Nov-17 16:52 34.280486 -119.498568 282 5989ft 120kts
18-Nov-17 16:53 34.288667 -119.537690 282 5989ft 120kts
18-Nov-17 16:54 34.296921 -119.577216 282 5989ft 121kts
18-Nov-17 16:55 34.305194 -119.616950 282 5989ft 122kts
18-Nov-17 16:56 34.313460 -119.656799 282 5990ft 122kts
18-Nov-17 16:57 34.321770 -119.697100 282 5991ft 123kts
18-Nov-17 16:58 34.330075 -119.737532 282 5991ft 124kts
18-Nov-17 16:59 34.338354 -119.777971 282 5990ft 124kts
18-Nov-17 17:00 34.346673 -119.818612 282 5990ft 124kts
18-Nov-17 17:01 34.355007 -119.859295 282 5990ft 124kts
18-Nov-17 17:02 34.363260 -119.899439 282 5962ft 114kts
18-Nov-17 17:03 34.369280 -119.927989 282 5351ft 104kts
18-Nov-17 17:04 34.377689 -119.967063 283 4411ft 102kts
18-Nov-17 17:05 34.385215 -119.999982 284 3611ft 101kts
18-Nov-17 17:06 34.391708 -120.027000 284 2967ft 99kts
18-Nov-17 17:07 34.403055 -120.062719 325 2255ft 101kts
18-Nov-17 17:08 34.422052 -120.049624 51 1996ft 106kts
18-Nov-17 17:09 34.428836 -120.017754 107 1995ft 106kts
18-Nov-17 17:10 34.425238 -119.978670 92 1988ft 94kts
18-Nov-17 17:11 34.425431 -119.952989 89 1639ft 91kts
18-Nov-17 17:12 34.426093 -119.920950 89 1138ft 99kts
18-Nov-17 17:13 34.426811 -119.887838 90 598ft 67kts
18-Nov-17 17:14 34.427202 -119.869520 89 310ft 66kts
18-Nov-17 17:15 34.427601 -119.849104 90 16ft 46kts
18-Nov-17 17:16 34.428376 -119.845947 62 16ft 0kts
18-Nov-17 17:17 34.428376 -119.845947 62 16ft 0kts
18-Nov-17 17:18 34.430236 -119.841060 64 16ft 24kts

Navigation Log

Ident Type
1. KSAN Airport
2. OCN Navaid
3. KELPS Fix
4. DANAH Fix
5. KRAUZ Fix
6. BALBO Fix
7. MIDDS Fix
8. SLI Navaid
9. POPPR Fix
10. HERMO Fix
11. LAX Navaid
12. SADDE Fix
13. VTU Navaid
14. KWANG Fix
15. KSBA Airport